createdAt,value
2022-08-05T00:00:04.999Z,18.00
2022-08-05T00:02:52.733Z,17.90
2022-08-05T00:06:04.978Z,17.90
2022-08-05T00:08:47.519Z,17.80
2022-08-05T00:11:47.488Z,17.80
2022-08-05T00:14:37.492Z,17.70
2022-08-05T00:17:25.853Z,17.70
2022-08-05T00:20:13.556Z,17.60
2022-08-05T00:23:12.864Z,17.50
2022-08-05T00:26:00.921Z,17.50
2022-08-05T00:28:49.371Z,17.40
2022-08-05T00:31:54.265Z,17.30
2022-08-05T00:35:04.623Z,17.30
2022-08-05T00:37:54.482Z,17.30
2022-08-05T00:40:51.906Z,17.20
2022-08-05T00:43:47.012Z,17.20
2022-08-05T00:46:42.651Z,17.20
2022-08-05T00:49:44.779Z,17.10
2022-08-05T00:52:39.442Z,17.10
2022-08-05T00:55:42.438Z,17.00
2022-08-05T00:58:30.947Z,17.00
2022-08-05T01:01:24.931Z,17.00
2022-08-05T01:04:26.785Z,16.90
2022-08-05T01:07:18.493Z,16.90
2022-08-05T01:10:09.062Z,16.90
2022-08-05T01:13:05.339Z,16.80
2022-08-05T01:16:02.250Z,16.80
2022-08-05T01:18:56.386Z,16.80
2022-08-05T01:21:58.355Z,16.70
2022-08-05T01:24:53.198Z,16.70
2022-08-05T01:27:55.344Z,16.70
2022-08-05T01:30:50.674Z,16.60
2022-08-05T01:33:49.180Z,16.50
2022-08-05T01:36:47.137Z,16.50
2022-08-05T01:39:46.224Z,16.50
2022-08-05T01:42:36.818Z,16.40
2022-08-05T01:45:27.690Z,16.40
2022-08-05T01:48:23.548Z,16.30
2022-08-05T01:51:12.074Z,16.30
2022-08-05T01:54:02.171Z,16.30
2022-08-05T01:58:12.973Z,16.30
2022-08-05T02:00:00.638Z,16.20
2022-08-05T02:02:54.925Z,16.20
2022-08-05T02:05:44.487Z,16.20
2022-08-05T02:08:40.863Z,16.10
2022-08-05T02:11:51.351Z,16.00
2022-08-05T02:14:43.567Z,16.10
2022-08-05T02:18:31.138Z,16.00
2022-08-05T02:20:49.564Z,15.90
2022-08-05T02:23:39.146Z,15.90
2022-08-05T02:26:28.603Z,15.90
2022-08-05T02:29:21.470Z,15.90
2022-08-05T02:32:12.552Z,15.80
2022-08-05T02:35:14.192Z,15.80
2022-08-05T02:38:03.732Z,15.70
2022-08-05T02:40:51.891Z,15.60
2022-08-05T02:44:06.252Z,15.60
2022-08-05T02:46:58.721Z,15.60
2022-08-05T02:49:51.012Z,15.50
2022-08-05T02:52:38.390Z,15.50
2022-08-05T02:55:54.045Z,15.50
2022-08-05T02:58:43.780Z,15.40
2022-08-05T03:01:32.492Z,15.40
2022-08-05T03:04:20.675Z,15.30
2022-08-05T03:07:17.611Z,15.30
2022-08-05T03:10:24.501Z,15.30
2022-08-05T03:13:17.088Z,15.30
2022-08-05T03:16:04.774Z,15.30
2022-08-05T03:18:52.354Z,15.30
2022-08-05T03:21:41.597Z,15.30
2022-08-05T03:24:36.562Z,15.20
2022-08-05T03:27:29.540Z,15.20
2022-08-05T03:30:33.547Z,15.20
2022-08-05T03:33:22.380Z,15.20
2022-08-05T03:36:30.177Z,15.20
2022-08-05T03:39:26.620Z,15.20
2022-08-05T03:42:14.933Z,15.20
2022-08-05T03:45:21.846Z,15.20
2022-08-05T03:48:12.331Z,15.20
2022-08-05T03:52:36.629Z,15.20
2022-08-05T03:55:51.303Z,15.30
2022-08-05T03:57:20.394Z,15.30
2022-08-05T04:00:08.937Z,15.40
2022-08-05T04:03:04.292Z,15.40
2022-08-05T04:05:53.668Z,15.50
2022-08-05T04:08:41.152Z,15.60
2022-08-05T04:11:47.314Z,15.70
2022-08-05T04:14:37.115Z,15.80
2022-08-05T04:17:25.339Z,15.90
2022-08-05T04:20:32.975Z,16.00
2022-08-05T04:24:05.015Z,16.20
2022-08-05T04:26:32.558Z,16.30
2022-08-05T04:29:20.041Z,16.40
2022-08-05T04:32:08.060Z,16.50
2022-08-05T04:34:57.595Z,16.60
2022-08-05T04:38:02.480Z,16.70
2022-08-05T04:40:54.236Z,16.90
2022-08-05T04:43:48.070Z,17.00
2022-08-05T04:46:35.591Z,17.20
2022-08-05T04:49:38.067Z,17.30
2022-08-05T04:52:27.741Z,17.40
2022-08-05T04:55:15.505Z,17.50
2022-08-05T04:58:05.575Z,17.70
2022-08-05T05:00:59.889Z,17.80
2022-08-05T05:03:47.984Z,17.90
2022-08-05T05:06:40.409Z,18.00
2022-08-05T05:09:32.373Z,18.20
2022-08-05T05:12:27.315Z,18.30
2022-08-05T05:15:17.485Z,18.40
2022-08-05T05:18:28.731Z,18.50
2022-08-05T05:21:21.162Z,18.70
2022-08-05T05:24:15.351Z,18.80
2022-08-05T05:27:06.038Z,19.00
2022-08-05T05:30:04.927Z,19.10
2022-08-05T05:32:54.091Z,19.20
2022-08-05T05:35:42.547Z,19.40
2022-08-05T05:38:30.220Z,19.50
2022-08-05T05:41:18.515Z,19.60
2022-08-05T05:44:26.995Z,19.70
2022-08-05T05:47:21.605Z,19.90
2022-08-05T05:50:11.506Z,20.00
2022-08-05T05:53:20.727Z,20.10
2022-08-05T05:56:09.947Z,20.30
2022-08-05T05:58:57.592Z,20.40
2022-08-05T06:01:57.313Z,20.50
2022-08-05T06:04:49.173Z,20.60
2022-08-05T06:07:42.073Z,20.70
2022-08-05T06:10:29.674Z,20.90
2022-08-05T06:13:24.259Z,21.00
2022-08-05T06:16:28.194Z,21.10
2022-08-05T06:19:34.199Z,21.30
2022-08-05T06:22:24.186Z,21.50
2022-08-05T06:25:59.467Z,21.70
2022-08-05T06:28:21.702Z,21.90
2022-08-05T06:31:11.326Z,22.00
2022-08-05T06:34:08.931Z,22.20
2022-08-05T06:36:58.156Z,22.40
2022-08-05T06:39:46.288Z,22.60
2022-08-05T06:42:35.348Z,22.70
2022-08-05T06:45:44.414Z,22.90
2022-08-05T06:48:50.531Z,23.00
2022-08-05T06:51:40.679Z,23.20
2022-08-05T06:54:28.766Z,23.30
2022-08-05T06:57:57.227Z,23.40
2022-08-05T07:00:27.246Z,23.50
2022-08-05T07:03:17.263Z,23.80
2022-08-05T07:06:05.748Z,23.90
2022-08-05T07:09:04.035Z,24.20
2022-08-05T07:11:52.603Z,24.40
2022-08-05T07:14:57.085Z,24.60
2022-08-05T07:18:01.162Z,24.70
2022-08-05T07:20:53.622Z,24.90
2022-08-05T07:23:49.136Z,25.20
2022-08-05T07:26:37.772Z,25.50
2022-08-05T07:30:27.213Z,25.70
2022-08-05T07:32:36.015Z,25.90
2022-08-05T07:36:02.709Z,26.10
2022-08-05T07:38:35.325Z,26.30
2022-08-05T07:42:07.915Z,26.40
2022-08-05T07:44:41.042Z,26.60
2022-08-05T07:47:41.981Z,26.70
2022-08-05T07:50:32.532Z,26.80
2022-08-05T07:53:21.158Z,27.00
2022-08-05T07:57:00.286Z,27.20
2022-08-05T07:59:23.236Z,27.50
2022-08-05T08:02:18.943Z,27.70
2022-08-05T08:05:07.020Z,28.00
2022-08-05T08:08:00.295Z,28.10
2022-08-05T08:10:49.024Z,28.30
2022-08-05T08:13:42.686Z,28.50
2022-08-05T08:16:50.322Z,28.70
2022-08-05T08:20:22.841Z,29.00
2022-08-05T08:22:51.676Z,29.10
2022-08-05T08:25:59.004Z,29.30
2022-08-05T08:28:59.035Z,29.40
2022-08-05T08:31:47.439Z,29.60
2022-08-05T08:34:35.843Z,29.80
2022-08-05T08:37:24.039Z,30.00
2022-08-05T08:40:15.500Z,30.20
2022-08-05T08:44:56.441Z,30.50
2022-08-05T08:46:15.578Z,30.70
2022-08-05T08:50:05.347Z,30.90
2022-08-05T08:52:14.478Z,31.00
2022-08-05T08:55:03.492Z,31.20
2022-08-05T08:58:01.544Z,31.40
2022-08-05T09:00:52.246Z,31.60
2022-08-05T09:03:45.073Z,31.70
2022-08-05T09:06:33.097Z,31.80
2022-08-05T09:09:23.690Z,32.10
2022-08-05T09:12:20.665Z,32.30
2022-08-05T09:15:15.125Z,32.50
2022-08-05T09:18:03.919Z,32.50
2022-08-05T09:20:52.542Z,32.60
2022-08-05T09:23:43.652Z,32.80
2022-08-05T09:26:32.412Z,33.10
2022-08-05T09:29:20.096Z,33.30
2022-08-05T09:32:51.273Z,33.50
2022-08-05T09:35:26.554Z,33.50
2022-08-05T09:38:18.081Z,33.60
2022-08-05T09:41:16.110Z,33.80
2022-08-05T09:44:06.929Z,34.00
2022-08-05T09:47:10.360Z,34.30
2022-08-05T09:50:01.681Z,34.40
2022-08-05T09:52:58.338Z,34.50
2022-08-05T09:55:57.383Z,34.60
2022-08-05T09:58:56.924Z,34.80
2022-08-05T10:01:47.404Z,35.00
2022-08-05T10:04:38.285Z,35.00
2022-08-05T10:08:10.831Z,35.00
2022-08-05T10:10:40.093Z,35.20
2022-08-05T10:13:46.272Z,35.60
2022-08-05T10:16:52.266Z,35.90
2022-08-05T10:20:03.703Z,36.00
2022-08-05T10:22:51.124Z,36.20
2022-08-05T10:25:39.875Z,36.10
2022-08-05T10:28:29.716Z,35.80
2022-08-05T10:32:51.661Z,35.50
2022-08-05T10:34:31.087Z,35.60
2022-08-05T10:37:19.134Z,36.00
2022-08-05T10:40:16.846Z,36.70
2022-08-05T10:43:23.206Z,37.00
2022-08-05T10:46:19.365Z,36.80
2022-08-05T10:49:16.425Z,36.90
2022-08-05T10:52:05.524Z,37.20
2022-08-05T10:55:03.848Z,37.40
2022-08-05T10:58:07.250Z,37.40
2022-08-05T11:01:02.969Z,37.70
2022-08-05T11:04:07.849Z,38.00
2022-08-05T11:07:06.596Z,38.00
2022-08-05T11:10:09.457Z,38.00
2022-08-05T11:12:57.798Z,38.30
2022-08-05T11:16:01.278Z,38.50
2022-08-05T11:20:11.054Z,38.80
2022-08-05T11:22:36.176Z,38.80
2022-08-05T11:26:05.499Z,38.70
2022-08-05T11:28:44.310Z,38.70
2022-08-05T11:31:57.943Z,38.90
2022-08-05T11:34:51.011Z,39.10
2022-08-05T11:38:26.447Z,39.40
2022-08-05T11:41:34.637Z,39.60
2022-08-05T11:44:40.494Z,39.40
2022-08-05T11:47:48.746Z,39.60
2022-08-05T11:50:38.489Z,39.60
2022-08-05T11:53:26.448Z,40.00
2022-08-05T11:56:21.823Z,40.00
2022-08-05T11:59:28.766Z,39.50
2022-08-05T12:02:33.017Z,39.20
2022-08-05T12:05:36.408Z,39.20
2022-08-05T12:08:28.646Z,39.50
2022-08-05T12:11:20.786Z,39.70
2022-08-05T12:14:10.274Z,39.60
2022-08-05T12:16:57.866Z,39.80
2022-08-05T12:20:27.657Z,40.00
2022-08-05T12:22:53.496Z,40.00
2022-08-05T12:25:53.879Z,40.00
2022-08-05T12:28:44.378Z,40.10
2022-08-05T12:31:43.797Z,40.10
2022-08-05T12:34:37.095Z,39.90
2022-08-05T12:37:24.626Z,40.00
2022-08-05T12:40:26.599Z,39.90
2022-08-05T12:43:21.090Z,40.10
2022-08-05T12:46:12.346Z,40.20
2022-08-05T12:49:05.887Z,40.30
2022-08-05T12:52:12.081Z,40.20
2022-08-05T12:55:02.262Z,40.30
2022-08-05T12:58:51.273Z,40.20
2022-08-05T13:01:59.858Z,39.90
2022-08-05T13:04:07.495Z,39.90
2022-08-05T13:06:58.189Z,40.20
2022-08-05T13:09:51.166Z,40.30
2022-08-05T13:12:51.118Z,40.20
2022-08-05T13:15:51.152Z,40.30
2022-08-05T13:18:40.468Z,40.50
2022-08-05T13:21:37.989Z,40.20
2022-08-05T13:24:51.247Z,40.10
2022-08-05T13:27:44.400Z,40.10
2022-08-05T13:30:40.227Z,40.30
2022-08-05T13:34:22.648Z,40.30
2022-08-05T13:36:36.500Z,40.20
2022-08-05T13:40:12.758Z,40.10
2022-08-05T13:42:31.141Z,40.30
2022-08-05T13:45:21.520Z,40.30
2022-08-05T13:48:56.700Z,40.30
2022-08-05T13:51:16.229Z,40.30
2022-08-05T13:54:11.769Z,40.50
2022-08-05T13:56:59.731Z,40.60
2022-08-05T13:59:57.493Z,40.70
2022-08-05T14:02:48.972Z,40.80
2022-08-05T14:06:04.494Z,40.80
2022-08-05T14:08:43.718Z,40.90
2022-08-05T14:11:33.240Z,41.00
2022-08-05T14:14:40.750Z,41.00
2022-08-05T14:17:29.704Z,40.80
2022-08-05T14:20:17.510Z,40.80
2022-08-05T14:23:06.040Z,40.90
2022-08-05T14:25:57.790Z,41.10
2022-08-05T14:28:52.298Z,41.30
2022-08-05T14:32:02.538Z,41.20
2022-08-05T14:34:47.233Z,41.40
2022-08-05T14:37:45.342Z,41.50
2022-08-05T14:40:36.145Z,41.60
2022-08-05T14:43:58.883Z,41.40
2022-08-05T14:46:35.339Z,41.70
2022-08-05T14:49:23.680Z,41.80
2022-08-05T14:52:51.896Z,41.90
2022-08-05T14:55:40.201Z,41.90
2022-08-05T14:58:27.985Z,41.10
2022-08-05T15:01:20.094Z,41.10
2022-08-05T15:04:13.556Z,41.20
2022-08-05T15:07:01.448Z,41.10
2022-08-05T15:09:54.179Z,41.40
2022-08-05T15:13:00.574Z,41.50
2022-08-05T15:15:55.648Z,41.90
2022-08-05T15:18:47.506Z,42.20
2022-08-05T15:21:36.984Z,42.50
2022-08-05T15:24:26.494Z,42.70
2022-08-05T15:27:13.974Z,42.90
2022-08-05T15:30:02.416Z,43.10
2022-08-05T15:32:51.079Z,43.20
2022-08-05T15:35:45.511Z,43.20
2022-08-05T15:38:42.139Z,43.40
2022-08-05T15:41:55.684Z,43.30
2022-08-05T15:44:42.091Z,43.30
2022-08-05T15:47:32.760Z,43.40
2022-08-05T15:50:25.198Z,43.50
2022-08-05T15:53:13.742Z,43.50
2022-08-05T15:56:05.646Z,43.50
2022-08-05T15:58:55.172Z,43.40
2022-08-05T16:01:52.885Z,43.30
2022-08-05T16:04:41.334Z,43.10
2022-08-05T16:07:29.782Z,43.00
2022-08-05T16:10:25.230Z,42.70
2022-08-05T16:13:19.324Z,42.10
2022-08-05T16:16:12.214Z,41.90
2022-08-05T16:19:00.075Z,41.90
2022-08-05T16:22:00.637Z,41.70
2022-08-05T16:24:51.189Z,41.60
2022-08-05T16:28:00.670Z,41.50
2022-08-05T16:30:50.493Z,41.50
2022-08-05T16:33:41.515Z,41.40
2022-08-05T16:36:29.663Z,41.30
2022-08-05T16:39:17.306Z,41.30
2022-08-05T16:42:14.562Z,41.10
2022-08-05T16:45:05.997Z,40.90
2022-08-05T16:48:25.560Z,40.50
2022-08-05T16:51:20.809Z,39.50
2022-08-05T16:54:17.530Z,38.90
2022-08-05T16:57:15.123Z,38.70
2022-08-05T17:00:11.443Z,38.60
2022-08-05T17:03:01.854Z,38.60
2022-08-05T17:05:53.985Z,38.60
2022-08-05T17:08:52.003Z,38.60
2022-08-05T17:11:48.478Z,38.60
2022-08-05T17:14:38.342Z,38.50
2022-08-05T17:17:42.169Z,38.40
2022-08-05T17:20:30.647Z,38.10
2022-08-05T17:24:05.943Z,37.80
2022-08-05T17:26:30.383Z,37.50
2022-08-05T17:29:22.563Z,37.00
2022-08-05T17:32:22.107Z,36.30
2022-08-05T17:35:15.634Z,35.40
2022-08-05T17:38:09.052Z,34.50
2022-08-05T17:40:58.643Z,33.70
2022-08-05T17:43:53.159Z,33.00
2022-08-05T17:46:41.089Z,32.30
2022-08-05T17:49:52.095Z,31.70
2022-08-05T17:52:52.698Z,31.30
2022-08-05T17:55:42.494Z,30.90
2022-08-05T17:58:36.491Z,30.40
2022-08-05T18:01:25.216Z,30.00
2022-08-05T18:04:13.295Z,29.60
2022-08-05T18:07:12.248Z,29.30
2022-08-05T18:10:06.535Z,28.90
2022-08-05T18:12:58.143Z,28.60
2022-08-05T18:15:47.243Z,28.40
2022-08-05T18:18:39.845Z,28.10
2022-08-05T18:22:07.301Z,27.80
2022-08-05T18:24:35.695Z,27.60
2022-08-05T18:27:23.765Z,27.30
2022-08-05T18:30:12.456Z,27.10
2022-08-05T18:33:02.682Z,27.00
2022-08-05T18:36:03.849Z,26.80
2022-08-05T18:38:54.966Z,26.60
2022-08-05T18:41:56.551Z,26.50
2022-08-05T18:44:49.317Z,26.40
2022-08-05T18:47:43.546Z,26.60
2022-08-05T18:50:49.825Z,27.10
2022-08-05T18:53:45.797Z,27.50
2022-08-05T18:56:38.174Z,27.70
2022-08-05T18:59:43.410Z,27.80
2022-08-05T19:02:35.817Z,27.80
2022-08-05T19:06:12.178Z,27.70
2022-08-05T19:08:36.039Z,27.70
2022-08-05T19:11:28.611Z,27.60
2022-08-05T19:14:44.790Z,27.60
2022-08-05T19:17:58.998Z,27.40
2022-08-05T19:20:41.367Z,27.30
2022-08-05T19:24:05.656Z,27.20
2022-08-05T19:26:55.040Z,27.00
2022-08-05T19:29:43.258Z,27.00
2022-08-05T19:32:32.097Z,26.90
2022-08-05T19:35:21.755Z,26.80
2022-08-05T19:38:09.745Z,26.60
2022-08-05T19:40:59.881Z,26.50
2022-08-05T19:44:05.476Z,26.50
2022-08-05T19:46:58.430Z,26.40
2022-08-05T19:49:48.056Z,26.40
2022-08-05T19:52:35.974Z,26.30
2022-08-05T19:56:18.414Z,26.30
2022-08-05T19:58:31.624Z,26.20
2022-08-05T20:01:40.847Z,26.10
2022-08-05T20:04:31.651Z,26.00
2022-08-05T20:07:46.538Z,25.90
2022-08-05T20:10:27.684Z,25.80
2022-08-05T20:13:16.680Z,25.70
2022-08-05T20:16:04.609Z,25.70
2022-08-05T20:18:55.430Z,25.60
2022-08-05T20:21:43.682Z,25.50
2022-08-05T20:24:33.227Z,25.40
2022-08-05T20:27:27.059Z,25.30
2022-08-05T20:30:15.075Z,25.10
2022-08-05T20:33:07.213Z,25.10
2022-08-05T20:35:57.534Z,25.10
2022-08-05T20:38:53.534Z,25.10
2022-08-05T20:41:43.793Z,25.10
2022-08-05T20:44:37.786Z,25.10
2022-08-05T20:47:31.787Z,25.10
2022-08-05T20:50:20.730Z,25.00
2022-08-05T20:53:16.324Z,24.90
2022-08-05T20:56:27.674Z,24.90
2022-08-05T20:59:26.283Z,24.90
2022-08-05T21:02:18.099Z,24.80
2022-08-05T21:05:06.688Z,24.80
2022-08-05T21:07:57.268Z,24.80
2022-08-05T21:10:49.388Z,24.80
2022-08-05T21:13:55.673Z,24.80
2022-08-05T21:16:44.435Z,24.80
2022-08-05T21:19:46.551Z,24.70
2022-08-05T21:22:36.176Z,24.60
2022-08-05T21:25:23.893Z,24.50
2022-08-05T21:28:30.690Z,24.50
2022-08-05T21:31:18.436Z,24.50
2022-08-05T21:34:06.431Z,24.50
2022-08-05T21:36:55.151Z,24.50
2022-08-05T21:39:43.109Z,24.50
2022-08-05T21:42:44.577Z,24.50
2022-08-05T21:45:51.825Z,24.50
2022-08-05T21:48:42.260Z,24.50
2022-08-05T21:52:21.547Z,24.40
2022-08-05T21:54:40.509Z,24.40
2022-08-05T21:57:31.946Z,24.40
2022-08-05T22:00:19.925Z,24.40
2022-08-05T22:03:15.172Z,24.30
2022-08-05T22:06:03.406Z,24.20
2022-08-05T22:08:53.635Z,24.20
2022-08-05T22:11:43.072Z,24.20
2022-08-05T22:14:37.872Z,24.10
2022-08-05T22:17:26.776Z,24.00
2022-08-05T22:20:20.504Z,23.80
2022-08-05T22:24:02.678Z,23.50
2022-08-05T22:26:56.100Z,23.20
2022-08-05T22:29:45.913Z,23.00
2022-08-05T22:32:35.092Z,22.70
2022-08-05T22:35:24.581Z,22.60
2022-08-05T22:38:12.787Z,22.50
2022-08-05T22:41:02.667Z,22.40
2022-08-05T22:43:59.358Z,22.40
2022-08-05T22:46:47.212Z,22.30
2022-08-05T22:50:17.629Z,22.20
2022-08-05T22:52:44.978Z,22.20
2022-08-05T22:55:37.203Z,22.20
2022-08-05T22:58:43.744Z,22.20
2022-08-05T23:01:50.737Z,22.10
2022-08-05T23:04:39.380Z,22.00
2022-08-05T23:07:27.789Z,22.00
2022-08-05T23:10:20.949Z,22.00
2022-08-05T23:13:11.423Z,22.00
2022-08-05T23:15:59.070Z,22.00
2022-08-05T23:18:47.417Z,22.10
2022-08-05T23:21:42.805Z,22.10
2022-08-05T23:24:36.743Z,22.10
2022-08-05T23:27:28.939Z,22.10
2022-08-05T23:30:19.188Z,22.10
2022-08-05T23:33:15.949Z,22.00
2022-08-05T23:36:07.028Z,22.00
2022-08-05T23:38:58.302Z,21.90
2022-08-05T23:41:48.512Z,21.90
2022-08-05T23:44:37.647Z,21.90
2022-08-05T23:47:33.561Z,22.00
2022-08-05T23:50:21.269Z,22.00
2022-08-05T23:53:22.419Z,22.00
2022-08-05T23:56:10.581Z,22.00
2022-08-05T23:58:58.696Z,22.00
